createdAt,value
2023-01-26T00:01:19.835Z,260.17
2023-01-26T00:03:46.676Z,303.83
2023-01-26T00:06:15.973Z,374.15
2023-01-26T00:08:44.686Z,303.00
2023-01-26T00:11:13.592Z,311.88
2023-01-26T00:13:40.590Z,320.67
2023-01-26T00:16:12.663Z,366.33
2023-01-26T00:18:40.721Z,301.40
2023-01-26T00:21:11.141Z,346.95
2023-01-26T00:23:37.874Z,297.30
2023-01-26T00:26:09.613Z,345.42
2023-01-26T00:28:38.144Z,314.65
2023-01-26T00:31:12.671Z,356.63
2023-01-26T00:33:39.348Z,353.58
2023-01-26T00:36:06.578Z,338.02
2023-01-26T00:38:33.383Z,357.33
2023-01-26T00:41:01.729Z,365.85
2023-01-26T00:43:28.858Z,373.80
2023-01-26T00:45:55.524Z,383.00
2023-01-26T00:48:24.525Z,352.90
2023-01-26T00:50:52.526Z,430.70
2023-01-26T00:53:19.492Z,428.00
2023-01-26T00:55:46.201Z,405.17
2023-01-26T00:58:12.996Z,630.58
2023-01-26T01:00:39.879Z,382.58
2023-01-26T01:03:07.251Z,346.80
2023-01-26T01:05:34.498Z,334.38
2023-01-26T01:08:02.226Z,352.27
2023-01-26T01:10:29.215Z,325.45
2023-01-26T01:12:56.522Z,360.73
2023-01-26T01:15:24.037Z,347.42
2023-01-26T01:17:50.701Z,352.55
2023-01-26T01:20:17.457Z,328.40
2023-01-26T01:22:44.228Z,315.08
2023-01-26T01:25:11.323Z,355.55
2023-01-26T01:27:38.411Z,337.65
2023-01-26T01:30:08.495Z,316.20
2023-01-26T01:32:36.283Z,321.13
2023-01-26T01:35:03.684Z,326.77
2023-01-26T01:37:30.612Z,346.92
2023-01-26T01:39:57.238Z,364.73
2023-01-26T01:42:24.946Z,313.27
2023-01-26T01:45:25.819Z,327.45
2023-01-26T01:48:02.743Z,309.70
2023-01-26T01:50:35.041Z,329.75
2023-01-26T01:53:03.021Z,338.42
2023-01-26T01:55:29.823Z,339.52
2023-01-26T01:58:01.656Z,342.23
2023-01-26T02:00:28.862Z,358.50
2023-01-26T02:03:18.993Z,350.38
2023-01-26T02:06:01.089Z,327.73
2023-01-26T02:08:33.395Z,401.08
2023-01-26T02:11:04.991Z,352.42
2023-01-26T02:13:33.599Z,335.40
2023-01-26T02:16:00.749Z,327.75
2023-01-26T02:18:28.710Z,356.20
2023-01-26T02:21:01.435Z,373.60
2023-01-26T02:23:50.584Z,321.38
2023-01-26T02:26:24.521Z,304.92
2023-01-26T02:28:52.258Z,270.77
2023-01-26T02:31:19.787Z,271.77
2023-01-26T02:33:47.847Z,249.18
2023-01-26T02:36:23.674Z,239.05
2023-01-26T02:39:08.501Z,253.13
2023-01-26T02:41:53.793Z,255.05
2023-01-26T02:44:22.454Z,281.58
2023-01-26T02:46:49.140Z,268.80
2023-01-26T02:49:35.075Z,277.83
2023-01-26T02:52:02.104Z,290.42
2023-01-26T02:54:47.309Z,258.65
2023-01-26T02:57:13.932Z,259.35
2023-01-26T02:59:40.619Z,247.10
2023-01-26T03:02:08.331Z,245.73
2023-01-26T03:04:34.939Z,259.52
2023-01-26T03:07:01.835Z,240.13
2023-01-26T03:09:28.575Z,237.05
2023-01-26T03:11:55.186Z,248.25
2023-01-26T03:14:21.825Z,275.58
2023-01-26T03:16:49.795Z,253.13
2023-01-26T03:19:34.909Z,223.45
2023-01-26T03:22:28.515Z,235.48
2023-01-26T03:25:14.798Z,244.73
2023-01-26T03:27:45.586Z,247.18
2023-01-26T03:30:16.773Z,225.85
2023-01-26T03:32:45.915Z,224.25
2023-01-26T03:35:15.905Z,223.18
2023-01-26T03:37:44.128Z,239.68
2023-01-26T03:40:35.519Z,233.65
2023-01-26T03:43:26.902Z,253.68
2023-01-26T03:46:12.626Z,252.35
2023-01-26T03:48:57.855Z,260.88
2023-01-26T03:51:43.454Z,261.67
2023-01-26T03:54:28.560Z,265.88
2023-01-26T03:59:37.592Z,257.17
2023-01-26T04:02:26.239Z,263.42
2023-01-26T04:05:12.709Z,270.20
2023-01-26T04:08:02.624Z,263.30
2023-01-26T04:13:14.331Z,248.52
2023-01-26T04:16:06.416Z,261.73
2023-01-26T04:18:52.166Z,258.83
2023-01-26T04:21:28.920Z,261.30
2023-01-26T04:23:58.209Z,267.92
2023-01-26T04:26:36.907Z,259.75
2023-01-26T04:29:12.860Z,269.85
2023-01-26T04:31:41.544Z,281.05
2023-01-26T04:34:14.308Z,277.88
2023-01-26T04:36:42.507Z,272.90
2023-01-26T04:39:09.758Z,315.63
2023-01-26T04:41:41.306Z,315.70
2023-01-26T04:44:11.328Z,269.25
2023-01-26T04:46:38.103Z,260.02
2023-01-26T04:49:05.721Z,288.63
2023-01-26T04:51:33.573Z,304.88
2023-01-26T04:54:00.335Z,278.38
2023-01-26T04:56:30.271Z,265.20
2023-01-26T04:58:59.847Z,280.80
2023-01-26T05:01:27.056Z,311.38
2023-01-26T05:03:54.025Z,283.30
2023-01-26T05:06:21.911Z,285.30
2023-01-26T05:08:49.622Z,289.27
2023-01-26T05:11:16.341Z,322.25
2023-01-26T05:13:54.889Z,291.63
2023-01-26T05:16:41.881Z,302.10
2023-01-26T05:19:23.502Z,330.60
2023-01-26T05:21:57.704Z,359.98
2023-01-26T05:24:24.793Z,363.40
2023-01-26T05:27:11.431Z,326.95
2023-01-26T05:29:39.728Z,389.60
2023-01-26T05:32:06.447Z,342.30
2023-01-26T05:34:33.482Z,367.55
2023-01-26T05:37:00.627Z,373.52
2023-01-26T05:39:27.294Z,396.98
2023-01-26T05:41:57.531Z,374.73
2023-01-26T05:44:59.116Z,439.25
2023-01-26T05:47:25.772Z,527.20
2023-01-26T05:49:52.618Z,375.60
2023-01-26T05:52:26.124Z,388.05
2023-01-26T05:54:52.871Z,351.70
2023-01-26T05:57:19.791Z,355.00
2023-01-26T05:59:57.075Z,525.92
2023-01-26T06:02:24.063Z,333.92
2023-01-26T06:04:50.770Z,378.73
2023-01-26T06:07:18.115Z,562.72
2023-01-26T06:09:50.070Z,802.10
2023-01-26T06:12:55.234Z,724.63
2023-01-26T06:15:42.292Z,573.45
2023-01-26T06:18:09.494Z,937.75
2023-01-26T06:20:36.720Z,901.55
2023-01-26T06:23:06.932Z,739.40
2023-01-26T06:25:34.977Z,659.67
2023-01-26T06:28:02.037Z,936.25
2023-01-26T06:30:29.413Z,789.67
2023-01-26T06:33:00.867Z,542.25
2023-01-26T06:35:28.801Z,691.03
2023-01-26T06:37:59.392Z,655.75
2023-01-26T06:40:26.251Z,530.22
2023-01-26T06:42:53.019Z,407.55
2023-01-26T06:45:20.584Z,384.25
2023-01-26T06:47:49.792Z,389.92
2023-01-26T06:50:19.559Z,411.75
2023-01-26T06:52:50.443Z,381.05
2023-01-26T06:55:51.422Z,368.48
2023-01-26T06:58:44.354Z,360.05
2023-01-26T07:01:33.349Z,378.85
2023-01-26T07:04:00.033Z,398.52
2023-01-26T07:06:26.656Z,404.30
2023-01-26T07:08:53.234Z,382.73
2023-01-26T07:11:20.511Z,377.23
2023-01-26T07:13:47.440Z,307.15
2023-01-26T07:16:16.377Z,332.58
2023-01-26T07:18:43.483Z,318.25
2023-01-26T07:21:12.803Z,317.27
2023-01-26T07:23:39.441Z,635.13
2023-01-26T07:26:07.185Z,309.77
2023-01-26T07:28:39.218Z,297.40
2023-01-26T07:31:08.689Z,304.90
2023-01-26T07:33:35.921Z,284.63
2023-01-26T07:36:04.044Z,269.83
2023-01-26T07:38:32.459Z,270.85
2023-01-26T07:40:59.215Z,259.60
2023-01-26T07:43:25.939Z,283.63
2023-01-26T07:45:54.418Z,273.65
2023-01-26T07:48:22.449Z,286.33
2023-01-26T07:50:49.447Z,271.20
2023-01-26T07:53:19.322Z,281.13
2023-01-26T07:55:47.118Z,279.23
2023-01-26T07:58:14.032Z,279.17
2023-01-26T08:00:40.858Z,277.98
2023-01-26T08:03:07.886Z,284.10
2023-01-26T08:05:36.831Z,265.92
2023-01-26T08:08:04.704Z,286.65
2023-01-26T08:10:31.859Z,270.10
2023-01-26T08:13:02.562Z,279.60
2023-01-26T08:15:30.294Z,282.65
2023-01-26T08:17:56.950Z,334.45
2023-01-26T08:20:23.707Z,302.85
2023-01-26T08:22:50.388Z,282.75
2023-01-26T08:25:17.062Z,287.95
2023-01-26T08:27:43.673Z,288.70
2023-01-26T08:30:11.403Z,270.75
2023-01-26T08:32:38.283Z,288.00
2023-01-26T08:35:05.360Z,251.73
2023-01-26T08:37:31.980Z,279.20
2023-01-26T08:39:58.567Z,279.92
2023-01-26T08:42:25.318Z,265.95
2023-01-26T08:44:52.438Z,255.77
2023-01-26T08:47:19.195Z,261.55
2023-01-26T08:49:45.817Z,272.10
2023-01-26T08:52:12.537Z,271.98
2023-01-26T08:54:39.317Z,282.60
2023-01-26T08:57:06.485Z,262.63
2023-01-26T08:59:33.127Z,277.20
2023-01-26T09:01:59.909Z,282.45
2023-01-26T09:04:27.308Z,284.75
2023-01-26T09:06:54.108Z,272.10
2023-01-26T09:09:20.731Z,265.92
2023-01-26T09:11:47.400Z,271.10
2023-01-26T09:14:14.114Z,256.95
2023-01-26T09:16:41.065Z,256.50
2023-01-26T09:19:07.925Z,289.38
2023-01-26T09:21:34.640Z,270.25
2023-01-26T09:24:02.383Z,232.48
2023-01-26T09:26:30.507Z,255.55
2023-01-26T09:28:57.474Z,229.85
2023-01-26T09:31:24.387Z,239.75
2023-01-26T09:33:51.964Z,249.00
2023-01-26T09:36:18.986Z,223.10
2023-01-26T09:38:45.806Z,215.82
2023-01-26T09:41:43.212Z,218.50
2023-01-26T09:44:15.883Z,212.60
2023-01-26T09:46:51.289Z,220.68
2023-01-26T09:49:27.068Z,231.35
2023-01-26T09:52:18.552Z,225.48
2023-01-26T09:54:58.283Z,224.48
2023-01-26T09:57:47.759Z,234.77
2023-01-26T10:00:26.288Z,228.23
2023-01-26T10:03:19.170Z,236.82
2023-01-26T10:06:06.063Z,242.05
2023-01-26T10:09:00.407Z,237.95
2023-01-26T10:11:44.370Z,258.02
2023-01-26T10:14:18.531Z,271.63
2023-01-26T10:16:48.238Z,292.23
2023-01-26T10:19:28.669Z,278.13
2023-01-26T10:21:57.672Z,267.50
2023-01-26T10:24:24.485Z,259.33
2023-01-26T10:26:56.343Z,263.55
2023-01-26T10:29:23.333Z,261.85
2023-01-26T10:31:49.997Z,250.93
2023-01-26T10:34:25.170Z,263.27
2023-01-26T10:37:02.342Z,247.43
2023-01-26T10:39:29.000Z,253.43
2023-01-26T10:41:58.798Z,236.70
2023-01-26T10:44:35.967Z,252.75
2023-01-26T10:47:22.650Z,252.85
2023-01-26T10:49:49.591Z,245.05
2023-01-26T10:52:17.729Z,221.80
2023-01-26T10:54:46.000Z,239.25
2023-01-26T10:57:30.627Z,244.25
2023-01-26T11:00:00.267Z,225.30
2023-01-26T11:02:31.155Z,229.52
2023-01-26T11:05:21.390Z,216.30
2023-01-26T11:08:02.058Z,193.02
2023-01-26T11:10:38.092Z,254.45
2023-01-26T11:13:19.109Z,197.38
2023-01-26T11:15:52.925Z,195.73
2023-01-26T11:18:50.662Z,173.95
2023-01-26T11:21:48.194Z,190.93
2023-01-26T11:24:21.036Z,199.23
2023-01-26T11:27:12.155Z,188.95
2023-01-26T11:30:06.604Z,185.43
2023-01-26T11:32:58.279Z,180.20
2023-01-26T11:35:46.091Z,147.18
2023-01-26T11:38:41.925Z,148.15
2023-01-26T11:41:24.988Z,169.57
2023-01-26T11:44:13.674Z,181.10
2023-01-26T11:47:09.381Z,181.25
2023-01-26T11:49:39.375Z,188.70
2023-01-26T11:52:25.119Z,216.65
2023-01-26T11:55:11.308Z,187.02
2023-01-26T11:57:44.135Z,192.43
2023-01-26T12:00:29.555Z,211.95
2023-01-26T12:03:04.151Z,187.70
2023-01-26T12:05:47.727Z,197.00
2023-01-26T12:08:38.294Z,216.13
2023-01-26T12:11:22.967Z,232.40
2023-01-26T12:14:20.448Z,227.15
2023-01-26T12:17:17.554Z,202.25
2023-01-26T12:20:04.652Z,204.70
2023-01-26T12:22:37.098Z,165.07
2023-01-26T12:25:26.831Z,162.98
2023-01-26T12:27:56.549Z,178.00
2023-01-26T12:30:41.914Z,178.43
2023-01-26T12:33:10.955Z,222.20
2023-01-26T12:36:16.835Z,150.57
2023-01-26T12:38:58.441Z,139.65
2023-01-26T12:41:43.859Z,134.57
2023-01-26T12:44:22.561Z,142.05
2023-01-26T12:47:01.315Z,173.77
2023-01-26T12:49:34.862Z,154.70
2023-01-26T12:52:10.546Z,168.43
2023-01-26T12:54:42.802Z,193.27
2023-01-26T12:57:16.263Z,174.98
2023-01-26T12:59:48.165Z,166.63
2023-01-26T13:02:15.477Z,163.82
2023-01-26T13:04:46.191Z,154.90
2023-01-26T13:07:37.026Z,140.85
2023-01-26T13:10:17.550Z,123.57
2023-01-26T13:13:00.655Z,150.88
2023-01-26T13:15:30.297Z,115.43
2023-01-26T13:18:04.082Z,117.93
2023-01-26T13:20:39.880Z,130.55
2023-01-26T13:23:28.406Z,118.65
2023-01-26T13:26:16.742Z,118.10
2023-01-26T13:28:45.455Z,113.80
2023-01-26T13:31:13.267Z,97.20
2023-01-26T13:33:41.777Z,100.40
2023-01-26T13:36:16.959Z,84.95
2023-01-26T13:38:53.055Z,86.72
2023-01-26T13:41:21.008Z,87.28
2023-01-26T13:43:54.373Z,79.68
2023-01-26T13:46:49.546Z,86.75
2023-01-26T13:49:44.232Z,96.35
2023-01-26T13:52:25.494Z,89.95
2023-01-26T13:54:54.718Z,90.43
2023-01-26T13:57:29.833Z,88.85
2023-01-26T14:00:00.866Z,86.82
2023-01-26T14:02:33.857Z,103.47
2023-01-26T14:05:03.167Z,104.03
2023-01-26T14:07:40.938Z,94.95
2023-01-26T14:10:15.109Z,102.47
2023-01-26T14:12:44.191Z,102.75
2023-01-26T14:15:32.332Z,98.45
2023-01-26T14:18:02.178Z,91.32
2023-01-26T14:20:36.775Z,86.25
2023-01-26T14:23:13.743Z,89.57
2023-01-26T14:25:43.321Z,91.65
2023-01-26T14:28:16.289Z,89.15
2023-01-26T14:30:43.488Z,80.53
2023-01-26T14:33:14.016Z,83.18
2023-01-26T14:35:56.245Z,81.68
2023-01-26T14:38:22.971Z,87.28
2023-01-26T14:40:58.927Z,82.68
2023-01-26T14:43:27.137Z,80.97
2023-01-26T14:46:17.244Z,84.10
2023-01-26T14:48:56.237Z,83.88
2023-01-26T14:51:25.078Z,81.75
2023-01-26T14:53:55.544Z,88.78
2023-01-26T14:56:37.096Z,87.72
2023-01-26T14:59:06.157Z,84.50
2023-01-26T15:01:33.943Z,79.53
2023-01-26T15:04:17.785Z,78.40
2023-01-26T15:06:44.736Z,77.85
2023-01-26T15:09:22.523Z,68.47
2023-01-26T15:12:19.019Z,75.95
2023-01-26T15:14:45.606Z,77.07
2023-01-26T15:17:40.779Z,71.90
2023-01-26T15:20:22.798Z,82.38
2023-01-26T15:22:51.516Z,84.85
2023-01-26T15:25:25.972Z,81.55
2023-01-26T15:27:58.926Z,77.47
2023-01-26T15:30:30.280Z,87.00
2023-01-26T15:32:58.264Z,72.88
2023-01-26T15:35:57.574Z,79.82
2023-01-26T15:38:24.317Z,86.50
2023-01-26T15:40:50.929Z,80.15
2023-01-26T15:43:19.302Z,82.50
2023-01-26T15:45:52.096Z,88.45
2023-01-26T15:48:18.836Z,82.35
2023-01-26T15:50:47.960Z,80.13
2023-01-26T15:53:16.199Z,84.47
2023-01-26T15:55:44.122Z,78.20
2023-01-26T15:58:10.898Z,86.55
2023-01-26T16:00:38.622Z,86.43
2023-01-26T16:03:14.887Z,82.43
2023-01-26T16:05:42.135Z,76.72
2023-01-26T16:08:10.461Z,83.72
2023-01-26T16:10:40.360Z,85.95
2023-01-26T16:13:17.760Z,105.65
2023-01-26T16:15:47.619Z,108.63
2023-01-26T16:18:14.710Z,101.90
2023-01-26T16:20:44.246Z,106.75
2023-01-26T16:23:23.109Z,111.18
2023-01-26T16:25:50.577Z,131.77
2023-01-26T16:28:17.970Z,134.50
2023-01-26T16:30:46.143Z,149.23
2023-01-26T16:33:15.235Z,155.73
2023-01-26T16:35:42.185Z,160.57
2023-01-26T16:38:12.797Z,161.52
2023-01-26T16:40:41.205Z,190.30
2023-01-26T16:43:23.838Z,183.40
2023-01-26T16:45:51.602Z,207.85
2023-01-26T16:48:18.551Z,203.25
2023-01-26T16:50:45.737Z,164.60
2023-01-26T16:53:21.624Z,209.52
2023-01-26T16:55:48.326Z,216.05
2023-01-26T16:58:14.943Z,211.35
2023-01-26T17:00:41.798Z,227.20
2023-01-26T17:03:12.276Z,180.23
2023-01-26T17:05:40.539Z,360.98
2023-01-26T17:08:07.741Z,225.07
2023-01-26T17:10:34.608Z,173.82
2023-01-26T17:13:01.402Z,175.85
2023-01-26T17:15:29.145Z,190.45
2023-01-26T17:17:56.046Z,308.13
2023-01-26T17:20:23.118Z,240.95
2023-01-26T17:22:50.034Z,313.25
2023-01-26T17:25:18.122Z,253.20
2023-01-26T17:27:46.356Z,244.88
2023-01-26T17:30:13.486Z,235.93
2023-01-26T17:32:42.140Z,228.82
2023-01-26T17:35:09.325Z,225.45
2023-01-26T17:37:37.430Z,191.02
2023-01-26T17:40:04.679Z,397.88
2023-01-26T17:42:33.348Z,183.43
2023-01-26T17:45:00.545Z,208.32
2023-01-26T17:47:27.340Z,181.93
2023-01-26T17:49:54.011Z,159.13
2023-01-26T17:52:20.643Z,174.93
2023-01-26T17:54:47.254Z,161.93
2023-01-26T17:57:15.048Z,180.75
2023-01-26T17:59:41.743Z,171.32
2023-01-26T18:02:12.857Z,148.85
2023-01-26T18:04:40.008Z,158.82
2023-01-26T18:07:06.813Z,170.18
2023-01-26T18:09:33.399Z,139.90
2023-01-26T18:12:00.028Z,371.77
2023-01-26T18:14:26.706Z,149.73
2023-01-26T18:16:53.357Z,160.68
2023-01-26T18:19:20.085Z,131.32
2023-01-26T18:21:47.509Z,113.72
2023-01-26T18:24:14.960Z,114.55
2023-01-26T18:26:41.718Z,117.80
2023-01-26T18:29:08.801Z,109.10
2023-01-26T18:31:40.421Z,111.75
2023-01-26T18:34:07.463Z,121.80
2023-01-26T18:36:34.243Z,114.05
2023-01-26T18:39:04.788Z,107.88
2023-01-26T18:41:32.715Z,96.40
2023-01-26T18:44:00.422Z,210.27
2023-01-26T18:46:28.403Z,104.13
2023-01-26T18:49:00.482Z,120.90
2023-01-26T18:51:29.074Z,105.95
2023-01-26T18:53:55.794Z,107.63
2023-01-26T18:56:22.428Z,90.97
2023-01-26T18:58:53.100Z,84.63
2023-01-26T19:01:21.115Z,93.35
2023-01-26T19:03:53.816Z,90.90
2023-01-26T19:06:21.828Z,84.55
2023-01-26T19:08:58.671Z,104.85
2023-01-26T19:11:33.729Z,86.30
2023-01-26T19:16:28.848Z,73.78
2023-01-26T19:18:56.080Z,77.80
2023-01-26T19:21:24.692Z,72.90
2023-01-26T19:23:52.809Z,82.68
2023-01-26T19:26:21.738Z,71.68
2023-01-26T19:28:50.904Z,76.25
2023-01-26T19:31:19.495Z,82.07
2023-01-26T19:33:54.456Z,69.88
2023-01-26T19:38:51.243Z,75.93
2023-01-26T19:41:19.243Z,85.75
2023-01-26T19:43:46.061Z,68.90
2023-01-26T19:46:14.709Z,67.68
2023-01-26T19:48:41.679Z,114.90
2023-01-26T19:51:12.341Z,76.68
2023-01-26T19:53:42.368Z,60.40
2023-01-26T19:56:30.442Z,75.25
2023-01-26T19:58:59.152Z,90.43
2023-01-26T20:01:27.185Z,91.25
2023-01-26T20:03:57.246Z,104.78
2023-01-26T20:06:27.387Z,100.72
2023-01-26T20:08:55.056Z,128.13
2023-01-26T20:11:24.978Z,112.97
2023-01-26T20:13:59.681Z,111.50
2023-01-26T20:16:30.122Z,121.15
2023-01-26T20:18:58.604Z,100.00
2023-01-26T20:21:26.013Z,95.50
2023-01-26T20:23:55.498Z,115.07
2023-01-26T20:26:25.097Z,136.88
2023-01-26T20:28:52.442Z,219.98
2023-01-26T20:31:21.472Z,155.50
2023-01-26T20:33:49.389Z,180.40
2023-01-26T20:36:19.176Z,153.38
2023-01-26T20:38:48.135Z,194.30
2023-01-26T20:41:18.886Z,190.82
2023-01-26T20:43:58.731Z,130.38
2023-01-26T20:46:29.385Z,326.40
2023-01-26T20:48:56.814Z,192.80
2023-01-26T20:51:30.162Z,156.15
2023-01-26T20:53:57.628Z,156.40
2023-01-26T20:56:24.375Z,153.20
2023-01-26T20:58:55.637Z,166.95
2023-01-26T21:01:23.556Z,181.40
2023-01-26T21:03:50.204Z,146.18
2023-01-26T21:06:20.707Z,163.65
2023-01-26T21:08:48.556Z,162.20
2023-01-26T21:11:17.194Z,217.93
2023-01-26T21:13:45.183Z,163.93
2023-01-26T21:16:16.344Z,177.10
2023-01-26T21:18:43.820Z,224.85
2023-01-26T21:21:13.685Z,179.73
2023-01-26T21:23:40.788Z,159.32
2023-01-26T21:26:10.938Z,233.52
2023-01-26T21:28:37.569Z,211.80
2023-01-26T21:31:06.077Z,187.88
2023-01-26T21:33:34.176Z,169.23
2023-01-26T21:36:02.619Z,183.55
2023-01-26T21:38:40.743Z,194.95
2023-01-26T21:41:37.400Z,297.67
2023-01-26T21:44:10.223Z,185.25
2023-01-26T21:46:37.340Z,214.30
2023-01-26T21:49:04.714Z,245.52
2023-01-26T21:51:50.080Z,197.82
2023-01-26T21:54:16.947Z,177.77
2023-01-26T21:56:43.627Z,240.80
2023-01-26T21:59:14.452Z,178.00
2023-01-26T22:01:43.962Z,161.05
2023-01-26T22:04:14.486Z,216.45
2023-01-26T22:06:41.146Z,220.45
2023-01-26T22:09:09.806Z,171.68
2023-01-26T22:11:37.032Z,240.05
2023-01-26T22:14:03.695Z,173.02
2023-01-26T22:16:30.420Z,188.00
2023-01-26T22:18:57.079Z,191.60
2023-01-26T22:21:24.306Z,248.63
2023-01-26T22:23:50.930Z,194.75
2023-01-26T22:26:21.309Z,305.70
2023-01-26T22:28:56.444Z,187.18
2023-01-26T22:31:26.811Z,151.80
2023-01-26T22:33:54.964Z,151.63
2023-01-26T22:36:22.289Z,160.38
2023-01-26T22:38:49.727Z,133.30
2023-01-26T22:41:20.201Z,170.00
2023-01-26T22:43:48.423Z,178.02
2023-01-26T22:46:19.649Z,167.00
2023-01-26T22:48:46.499Z,162.07
2023-01-26T22:51:22.478Z,154.73
2023-01-26T22:53:50.526Z,172.68
2023-01-26T22:56:18.180Z,191.40
2023-01-26T22:58:57.520Z,146.98
2023-01-26T23:01:28.095Z,216.60
2023-01-26T23:03:55.674Z,194.93
2023-01-26T23:06:22.416Z,244.15
2023-01-26T23:08:49.497Z,248.80
2023-01-26T23:11:25.522Z,240.45
2023-01-26T23:13:53.767Z,231.45
2023-01-26T23:16:23.856Z,270.50
2023-01-26T23:18:52.006Z,229.25
2023-01-26T23:21:19.608Z,233.18
2023-01-26T23:23:46.489Z,234.30
2023-01-26T23:26:13.236Z,221.25
2023-01-26T23:28:42.001Z,375.17
2023-01-26T23:31:10.172Z,207.15
2023-01-26T23:33:37.884Z,219.13
2023-01-26T23:36:05.966Z,233.68
2023-01-26T23:38:32.806Z,235.15
2023-01-26T23:41:02.700Z,248.88
2023-01-26T23:43:29.385Z,422.58
2023-01-26T23:45:56.753Z,212.68
2023-01-26T23:48:24.951Z,184.75
2023-01-26T23:50:59.937Z,187.60
2023-01-26T23:55:53.866Z,189.48
2023-01-26T23:58:20.722Z,148.27
